sensor_id;sensor_type;location;lat;lon;timestamp;pressure;altitude;pressure_sealevel;temperature;humidity
4834;BME280;12895;51.064;7.028;2023-07-30T00:00:38;100210.16;;;17.78;85.91
4834;BME280;12895;51.064;7.028;2023-07-30T00:03:23;100208.66;;;17.64;87.30
4834;BME280;12895;51.064;7.028;2023-07-30T00:06:11;100217.56;;;17.63;86.29
4834;BME280;12895;51.064;7.028;2023-07-30T00:08:56;100211.97;;;17.63;86.69
4834;BME280;12895;51.064;7.028;2023-07-30T00:11:44;100213.06;;;17.60;84.83
4834;BME280;12895;51.064;7.028;2023-07-30T00:14:30;100223.94;;;17.63;84.55
4834;BME280;12895;51.064;7.028;2023-07-30T00:17:15;100209.19;;;17.50;85.81
4834;BME280;12895;51.064;7.028;2023-07-30T00:20:00;100217.88;;;17.46;85.20
4834;BME280;12895;51.064;7.028;2023-07-30T00:22:46;100222.34;;;17.36;86.43
4834;BME280;12895;51.064;7.028;2023-07-30T00:25:31;100218.97;;;17.25;87.90
4834;BME280;12895;51.064;7.028;2023-07-30T00:28:18;100225.41;;;17.20;87.60
4834;BME280;12895;51.064;7.028;2023-07-30T00:31:04;100224.41;;;17.17;88.35
4834;BME280;12895;51.064;7.028;2023-07-30T00:33:49;100223.91;;;17.19;88.70
4834;BME280;12895;51.064;7.028;2023-07-30T00:36:34;100222.25;;;17.10;87.23
4834;BME280;12895;51.064;7.028;2023-07-30T00:39:21;100223.31;;;17.07;87.56
4834;BME280;12895;51.064;7.028;2023-07-30T00:42:06;100222.88;;;17.03;88.54
4834;BME280;12895;51.064;7.028;2023-07-30T00:44:51;100226.31;;;17.09;88.28
4834;BME280;12895;51.064;7.028;2023-07-30T00:47:36;100224.69;;;17.01;88.80
4834;BME280;12895;51.064;7.028;2023-07-30T00:50:22;100230.28;;;17.01;88.94
4834;BME280;12895;51.064;7.028;2023-07-30T00:53:08;100229.28;;;16.98;88.10
4834;BME280;12895;51.064;7.028;2023-07-30T00:55:55;100226.53;;;17.11;88.88
4834;BME280;12895;51.064;7.028;2023-07-30T00:58:40;100227.22;;;17.17;88.65
4834;BME280;12895;51.064;7.028;2023-07-30T01:01:26;100232.81;;;17.17;88.44
4834;BME280;12895;51.064;7.028;2023-07-30T01:04:11;100230.22;;;17.19;87.78
4834;BME280;12895;51.064;7.028;2023-07-30T01:06:58;100235.50;;;17.23;87.86
4834;BME280;12895;51.064;7.028;2023-07-30T01:09:44;100239.72;;;17.29;87.53
4834;BME280;12895;51.064;7.028;2023-07-30T01:12:32;100242.13;;;17.38;87.16
4834;BME280;12895;51.064;7.028;2023-07-30T01:15:19;100243.78;;;17.47;87.14
4834;BME280;12895;51.064;7.028;2023-07-30T01:18:04;100240.00;;;17.44;87.43
4834;BME280;12895;51.064;7.028;2023-07-30T01:20:53;100234.03;;;17.66;86.94
4834;BME280;12895;51.064;7.028;2023-07-30T01:23:39;100242.63;;;17.68;85.64
4834;BME280;12895;51.064;7.028;2023-07-30T01:26:24;100246.91;;;17.56;86.38
4834;BME280;12895;51.064;7.028;2023-07-30T01:29:13;100251.22;;;17.57;86.65
4834;BME280;12895;51.064;7.028;2023-07-30T01:32:02;100255.81;;;17.55;87.20
4834;BME280;12895;51.064;7.028;2023-07-30T01:34:49;100260.25;;;17.63;87.07
4834;BME280;12895;51.064;7.028;2023-07-30T01:37:38;100257.56;;;17.71;86.85
4834;BME280;12895;51.064;7.028;2023-07-30T01:40:24;100263.47;;;17.67;87.03
4834;BME280;12895;51.064;7.028;2023-07-30T01:43:10;100263.06;;;17.63;87.20
4834;BME280;12895;51.064;7.028;2023-07-30T01:45:55;100253.81;;;17.68;87.60
4834;BME280;12895;51.064;7.028;2023-07-30T01:48:40;100263.47;;;17.67;86.81
4834;BME280;12895;51.064;7.028;2023-07-30T01:51:25;100261.00;;;17.64;85.72
4834;BME280;12895;51.064;7.028;2023-07-30T01:54:12;100261.78;;;17.77;84.50
4834;BME280;12895;51.064;7.028;2023-07-30T01:56:57;100259.66;;;17.83;85.19
4834;BME280;12895;51.064;7.028;2023-07-30T01:59:43;100259.84;;;17.85;86.51
4834;BME280;12895;51.064;7.028;2023-07-30T02:02:28;100270.16;;;17.77;85.00
4834;BME280;12895;51.064;7.028;2023-07-30T02:05:13;100263.53;;;17.80;85.42
4834;BME280;12895;51.064;7.028;2023-07-30T02:08:02;100261.16;;;17.84;85.12
4834;BME280;12895;51.064;7.028;2023-07-30T02:10:55;100251.16;;;17.89;85.29
4834;BME280;12895;51.064;7.028;2023-07-30T02:13:41;100251.25;;;17.96;84.76
4834;BME280;12895;51.064;7.028;2023-07-30T02:16:26;100250.00;;;18.10;82.67
4834;BME280;12895;51.064;7.028;2023-07-30T02:19:11;100246.31;;;18.15;81.21
4834;BME280;12895;51.064;7.028;2023-07-30T02:21:56;100245.91;;;18.11;80.60
4834;BME280;12895;51.064;7.028;2023-07-30T02:24:42;100245.13;;;18.11;82.62
4834;BME280;12895;51.064;7.028;2023-07-30T02:27:28;100246.22;;;18.08;82.99
4834;BME280;12895;51.064;7.028;2023-07-30T02:30:13;100238.81;;;18.10;80.24
4834;BME280;12895;51.064;7.028;2023-07-30T02:32:58;100229.22;;;18.19;78.90
4834;BME280;12895;51.064;7.028;2023-07-30T02:35:44;100233.50;;;18.20;79.53
4834;BME280;12895;51.064;7.028;2023-07-30T02:38:29;100248.91;;;18.13;79.99
4834;BME280;12895;51.064;7.028;2023-07-30T02:41:15;100246.63;;;18.12;81.27
4834;BME280;12895;51.064;7.028;2023-07-30T02:44:02;100248.28;;;18.20;79.26
4834;BME280;12895;51.064;7.028;2023-07-30T02:46:47;100248.91;;;18.13;80.40
4834;BME280;12895;51.064;7.028;2023-07-30T02:49:32;100241.41;;;18.08;79.50
4834;BME280;12895;51.064;7.028;2023-07-30T02:52:17;100253.34;;;18.35;77.84
4834;BME280;12895;51.064;7.028;2023-07-30T02:55:04;100268.28;;;18.11;78.40
4834;BME280;12895;51.064;7.028;2023-07-30T02:57:49;100264.63;;;18.03;79.28
4834;BME280;12895;51.064;7.028;2023-07-30T03:03:23;100269.78;;;18.12;78.88
4834;BME280;12895;51.064;7.028;2023-07-30T03:06:08;100270.31;;;18.11;77.74
4834;BME280;12895;51.064;7.028;2023-07-30T03:08:53;100288.28;;;18.02;77.50
4834;BME280;12895;51.064;7.028;2023-07-30T03:11:38;100276.88;;;18.00;78.59
4834;BME280;12895;51.064;7.028;2023-07-30T03:14:23;100275.38;;;18.12;78.47
4834;BME280;12895;51.064;7.028;2023-07-30T03:17:09;100286.47;;;18.05;78.58
4834;BME280;12895;51.064;7.028;2023-07-30T03:19:56;100283.09;;;18.06;78.27
4834;BME280;12895;51.064;7.028;2023-07-30T03:22:41;100288.38;;;18.10;77.71
4834;BME280;12895;51.064;7.028;2023-07-30T03:25:26;100292.13;;;17.86;78.92
4834;BME280;12895;51.064;7.028;2023-07-30T03:28:11;100285.69;;;18.04;77.84
4834;BME280;12895;51.064;7.028;2023-07-30T03:30:56;100287.19;;;18.05;77.95
4834;BME280;12895;51.064;7.028;2023-07-30T03:33:48;100294.41;;;18.01;78.39
4834;BME280;12895;51.064;7.028;2023-07-30T03:36:34;100292.78;;;18.05;76.80
4834;BME280;12895;51.064;7.028;2023-07-30T03:39:19;100294.94;;;17.99;76.88
4834;BME280;12895;51.064;7.028;2023-07-30T03:42:05;100294.94;;;18.12;76.29
4834;BME280;12895;51.064;7.028;2023-07-30T03:44:50;100291.91;;;17.97;76.97
4834;BME280;12895;51.064;7.028;2023-07-30T03:47:36;100295.16;;;18.01;75.89
4834;BME280;12895;51.064;7.028;2023-07-30T03:50:21;100290.31;;;18.02;75.21
4834;BME280;12895;51.064;7.028;2023-07-30T03:53:07;100295.16;;;18.01;75.54
4834;BME280;12895;51.064;7.028;2023-07-30T03:55:53;100289.47;;;18.07;75.48
4834;BME280;12895;51.064;7.028;2023-07-30T03:58:38;100295.78;;;18.07;69.91
4834;BME280;12895;51.064;7.028;2023-07-30T04:01:23;100299.00;;;17.98;69.85
4834;BME280;12895;51.064;7.028;2023-07-30T04:04:08;100313.97;;;18.01;69.75
4834;BME280;12895;51.064;7.028;2023-07-30T04:06:54;100321.72;;;17.95;68.97
4834;BME280;12895;51.064;7.028;2023-07-30T04:09:41;100322.22;;;17.80;69.57
4834;BME280;12895;51.064;7.028;2023-07-30T04:12:26;100327.38;;;17.76;69.15
4834;BME280;12895;51.064;7.028;2023-07-30T04:15:11;100323.47;;;17.66;69.92
4834;BME280;12895;51.064;7.028;2023-07-30T04:17:56;100314.97;;;17.59;67.62
4834;BME280;12895;51.064;7.028;2023-07-30T04:20:42;100317.34;;;17.68;67.80
4834;BME280;12895;51.064;7.028;2023-07-30T04:23:27;100320.25;;;17.62;68.37
4834;BME280;12895;51.064;7.028;2023-07-30T04:26:13;100313.25;;;17.56;68.26
4834;BME280;12895;51.064;7.028;2023-07-30T04:28:58;100307.50;;;17.48;68.44
4834;BME280;12895;51.064;7.028;2023-07-30T04:31:43;100304.47;;;17.46;69.80
4834;BME280;12895;51.064;7.028;2023-07-30T04:34:28;100312.28;;;17.66;67.48
4834;BME280;12895;51.064;7.028;2023-07-30T04:37:13;100312.91;;;17.59;67.32
4834;BME280;12895;51.064;7.028;2023-07-30T04:39:59;100324.94;;;17.54;67.93
4834;BME280;12895;51.064;7.028;2023-07-30T04:42:48;100322.88;;;17.55;66.73
4834;BME280;12895;51.064;7.028;2023-07-30T04:45:33;100318.25;;;17.44;67.29
4834;BME280;12895;51.064;7.028;2023-07-30T04:48:18;100310.06;;;17.46;67.87
4834;BME280;12895;51.064;7.028;2023-07-30T04:51:05;100312.78;;;17.52;66.99
4834;BME280;12895;51.064;7.028;2023-07-30T04:53:50;100321.06;;;17.57;67.27
4834;BME280;12895;51.064;7.028;2023-07-30T04:56:36;100322.56;;;17.58;67.63
4834;BME280;12895;51.064;7.028;2023-07-30T04:59:22;100326.84;;;17.46;68.07
4834;BME280;12895;51.064;7.028;2023-07-30T05:02:07;100319.47;;;17.62;67.89
4834;BME280;12895;51.064;7.028;2023-07-30T05:04:52;100313.25;;;17.56;68.60
4834;BME280;12895;51.064;7.028;2023-07-30T05:07:37;100321.03;;;17.76;68.26
4834;BME280;12895;51.064;7.028;2023-07-30T05:10:23;100320.28;;;17.75;68.35
4834;BME280;12895;51.064;7.028;2023-07-30T05:13:08;100311.84;;;17.62;69.21
4834;BME280;12895;51.064;7.028;2023-07-30T05:15:54;100314.00;;;17.69;70.93
4834;BME280;12895;51.064;7.028;2023-07-30T05:18:40;100328.88;;;17.77;69.30
4834;BME280;12895;51.064;7.028;2023-07-30T05:21:25;100318.56;;;17.85;68.61
4834;BME280;12895;51.064;7.028;2023-07-30T05:24:10;100329.31;;;17.81;68.63
4834;BME280;12895;51.064;7.028;2023-07-30T05:26:55;100327.06;;;17.80;68.64
4834;BME280;12895;51.064;7.028;2023-07-30T05:29:40;100324.34;;;17.74;68.16
4834;BME280;12895;51.064;7.028;2023-07-30T05:32:26;100320.78;;;17.74;67.71
4834;BME280;12895;51.064;7.028;2023-07-30T05:35:11;100324.34;;;17.74;67.79
4834;BME280;12895;51.064;7.028;2023-07-30T05:37:57;100320.06;;;17.86;67.95
4834;BME280;12895;51.064;7.028;2023-07-30T05:40:42;100314.94;;;17.90;68.03
4834;BME280;12895;51.064;7.028;2023-07-30T05:43:27;100320.34;;;18.01;67.23
4834;BME280;12895;51.064;7.028;2023-07-30T05:46:13;100317.31;;;17.99;67.56
4834;BME280;12895;51.064;7.028;2023-07-30T05:48:59;100324.16;;;17.85;67.64
4834;BME280;12895;51.064;7.028;2023-07-30T05:51:45;100327.38;;;17.76;68.35
4834;BME280;12895;51.064;7.028;2023-07-30T05:54:30;100328.44;;;17.73;68.31
4834;BME280;12895;51.064;7.028;2023-07-30T05:57:15;100322.22;;;17.80;69.40
4834;BME280;12895;51.064;7.028;2023-07-30T06:00:00;100330.63;;;17.80;68.85
4834;BME280;12895;51.064;7.028;2023-07-30T06:02:56;100328.25;;;17.84;67.84
4834;BME280;12895;51.064;7.028;2023-07-30T06:05:42;100321.34;;;17.72;69.11
4834;BME280;12895;51.064;7.028;2023-07-30T06:08:28;100325.25;;;17.82;69.00
4834;BME280;12895;51.064;7.028;2023-07-30T06:11:14;100331.22;;;17.60;69.35
4834;BME280;12895;51.064;7.028;2023-07-30T06:13:59;100331.66;;;17.77;69.30
4834;BME280;12895;51.064;7.028;2023-07-30T06:16:44;100338.59;;;17.89;68.13
4834;BME280;12895;51.064;7.028;2023-07-30T06:19:29;100339.84;;;17.88;67.90
4834;BME280;12895;51.064;7.028;2023-07-30T06:22:16;100341.63;;;18.04;67.07
4834;BME280;12895;51.064;7.028;2023-07-30T06:25:01;100347.84;;;17.97;67.69
4834;BME280;12895;51.064;7.028;2023-07-30T06:27:47;100345.72;;;18.03;67.96
4834;BME280;12895;51.064;7.028;2023-07-30T06:30:32;100354.13;;;18.16;66.25
4834;BME280;12895;51.064;7.028;2023-07-30T06:33:17;100346.22;;;18.33;67.47
4834;BME280;12895;51.064;7.028;2023-07-30T06:36:02;100338.25;;;18.37;66.48
4834;BME280;12895;51.064;7.028;2023-07-30T06:38:49;100356.44;;;18.57;66.55
4834;BME280;12895;51.064;7.028;2023-07-30T06:41:34;100354.06;;;18.61;65.91
4834;BME280;12895;51.064;7.028;2023-07-30T06:44:21;100372.06;;;18.39;64.49
4834;BME280;12895;51.064;7.028;2023-07-30T06:47:08;100370.88;;;18.35;66.32
4834;BME280;12895;51.064;7.028;2023-07-30T06:49:53;100361.97;;;18.18;65.72
4834;BME280;12895;51.064;7.028;2023-07-30T06:52:38;100371.97;;;18.00;66.50
4834;BME280;12895;51.064;7.028;2023-07-30T06:55:25;100375.25;;;17.86;67.61
4834;BME280;12895;51.064;7.028;2023-07-30T06:58:10;100380.16;;;18.11;66.91
4834;BME280;12895;51.064;7.028;2023-07-30T07:00:55;100382.75;;;18.22;66.66
4834;BME280;12895;51.064;7.028;2023-07-30T07:03:40;100379.06;;;18.14;67.68
4834;BME280;12895;51.064;7.028;2023-07-30T07:06:26;100377.56;;;18.13;66.96
4834;BME280;12895;51.064;7.028;2023-07-30T07:09:11;100388.34;;;18.09;67.43
4834;BME280;12895;51.064;7.028;2023-07-30T07:11:58;100381.28;;;18.34;66.80
4834;BME280;12895;51.064;7.028;2023-07-30T07:14:43;100382.09;;;18.16;67.13
4834;BME280;12895;51.064;7.028;2023-07-30T07:17:29;100377.38;;;18.24;69.02
4834;BME280;12895;51.064;7.028;2023-07-30T07:20:14;100380.38;;;18.26;66.78
4834;BME280;12895;51.064;7.028;2023-07-30T07:22:59;100385.63;;;18.48;66.52
4834;BME280;12895;51.064;7.028;2023-07-30T07:25:44;100385.94;;;18.45;66.26
4834;BME280;12895;51.064;7.028;2023-07-30T07:28:31;100381.84;;;18.46;68.61
4834;BME280;12895;51.064;7.028;2023-07-30T07:31:16;100389.91;;;18.62;65.37
4834;BME280;12895;51.064;7.028;2023-07-30T07:34:02;100391.41;;;18.63;66.88
4834;BME280;12895;51.064;7.028;2023-07-30T07:36:47;100393.16;;;18.53;65.75
4834;BME280;12895;51.064;7.028;2023-07-30T07:39:32;100401.56;;;18.66;66.22
4834;BME280;12895;51.064;7.028;2023-07-30T07:42:17;100398.00;;;18.66;65.23
4834;BME280;12895;51.064;7.028;2023-07-30T07:45:04;100394.44;;;18.91;65.40
4834;BME280;12895;51.064;7.028;2023-07-30T07:47:50;100398.06;;;19.12;64.54
4834;BME280;12895;51.064;7.028;2023-07-30T07:50:34;100411.03;;;18.76;64.65
4834;BME280;12895;51.064;7.028;2023-07-30T07:53:20;100402.19;;;18.59;65.35
4834;BME280;12895;51.064;7.028;2023-07-30T07:56:05;100400.03;;;18.39;65.99
4834;BME280;12895;51.064;7.028;2023-07-30T07:58:50;100405.22;;;18.48;66.04
4834;BME280;12895;51.064;7.028;2023-07-30T08:01:37;100393.78;;;18.72;65.63
4834;BME280;12895;51.064;7.028;2023-07-30T08:04:22;100405.41;;;19.02;64.84
4834;BME280;12895;51.064;7.028;2023-07-30T08:07:07;100402.78;;;19.30;63.43
4834;BME280;12895;51.064;7.028;2023-07-30T08:09:52;100396.53;;;19.37;63.61
4834;BME280;12895;51.064;7.028;2023-07-30T08:12:38;100396.81;;;19.47;65.29
4834;BME280;12895;51.064;7.028;2023-07-30T08:15:23;100399.94;;;19.56;64.31
4834;BME280;12895;51.064;7.028;2023-07-30T08:18:10;100400.13;;;19.58;62.76
4834;BME280;12895;51.064;7.028;2023-07-30T08:20:55;100407.31;;;19.33;64.21
4834;BME280;12895;51.064;7.028;2023-07-30T08:23:40;100406.50;;;19.25;63.70
4834;BME280;12895;51.064;7.028;2023-07-30T08:26:26;100407.88;;;19.19;64.63
4834;BME280;12895;51.064;7.028;2023-07-30T08:29:11;100416.81;;;19.17;64.87
4834;BME280;12895;51.064;7.028;2023-07-30T08:31:57;100416.38;;;19.13;64.34
4834;BME280;12895;51.064;7.028;2023-07-30T08:34:45;100413.16;;;18.83;65.20
4834;BME280;12895;51.064;7.028;2023-07-30T08:37:30;100411.00;;;19.02;65.57
4834;BME280;12895;51.064;7.028;2023-07-30T08:40:15;100406.91;;;19.03;65.53
4834;BME280;12895;51.064;7.028;2023-07-30T08:43:00;100405.41;;;19.02;64.86
4834;BME280;12895;51.064;7.028;2023-07-30T08:45:47;100403.91;;;18.75;66.22
4834;BME280;12895;51.064;7.028;2023-07-30T08:48:32;100400.69;;;18.97;65.99
4834;BME280;12895;51.064;7.028;2023-07-30T08:51:19;100412.94;;;19.07;65.75
4834;BME280;12895;51.064;7.028;2023-07-30T08:54:04;100407.88;;;19.19;66.06
4834;BME280;12895;51.064;7.028;2023-07-30T08:56:50;100419.09;;;19.65;65.26
4834;BME280;12895;51.064;7.028;2023-07-30T08:59:37;100413.72;;;20.08;63.47
4834;BME280;12895;51.064;7.028;2023-07-30T09:02:23;100407.63;;;20.17;64.18
4834;BME280;12895;51.064;7.028;2023-07-30T09:05:10;100401.59;;;20.33;62.10
4834;BME280;12895;51.064;7.028;2023-07-30T09:07:57;100423.25;;;20.81;62.77
4834;BME280;12895;51.064;7.028;2023-07-30T09:10:42;100435.69;;;20.86;60.46
4834;BME280;12895;51.064;7.028;2023-07-30T09:13:27;100427.84;;;20.64;60.99
4834;BME280;12895;51.064;7.028;2023-07-30T09:16:13;100433.88;;;20.96;61.22
4834;BME280;12895;51.064;7.028;2023-07-30T09:18:59;100446.50;;;20.82;59.46
4834;BME280;12895;51.064;7.028;2023-07-30T09:21:44;100434.16;;;20.85;58.52
4834;BME280;12895;51.064;7.028;2023-07-30T09:24:30;100443.63;;;20.46;60.50
4834;BME280;12895;51.064;7.028;2023-07-30T09:27:19;100440.97;;;20.20;60.88
4834;BME280;12895;51.064;7.028;2023-07-30T09:30:07;100442.34;;;20.27;60.31
4834;BME280;12895;51.064;7.028;2023-07-30T09:32:53;100448.00;;;20.34;60.92
4834;BME280;12895;51.064;7.028;2023-07-30T09:35:38;100441.31;;;20.37;60.16
4834;BME280;12895;51.064;7.028;2023-07-30T09:38:24;100445.00;;;20.81;59.67
4834;BME280;12895;51.064;7.028;2023-07-30T09:41:14;100442.22;;;21.16;59.24
4834;BME280;12895;51.064;7.028;2023-07-30T09:43:59;100442.72;;;20.79;58.37
4834;BME280;12895;51.064;7.028;2023-07-30T09:46:45;100451.63;;;20.63;59.85
4834;BME280;12895;51.064;7.028;2023-07-30T09:49:30;100452.25;;;20.48;59.59
4834;BME280;12895;51.064;7.028;2023-07-30T09:52:16;100465.84;;;20.65;60.42
4834;BME280;12895;51.064;7.028;2023-07-30T09:55:01;100458.50;;;20.34;60.16
4834;BME280;12895;51.064;7.028;2023-07-30T09:57:48;100454.97;;;20.61;60.12
4834;BME280;12895;51.064;7.028;2023-07-30T10:00:33;100452.22;;;20.69;59.01
4834;BME280;12895;51.064;7.028;2023-07-30T10:03:19;100468.31;;;20.89;59.02
4834;BME280;12895;51.064;7.028;2023-07-30T10:06:05;100459.94;;;20.76;57.31
4834;BME280;12895;51.064;7.028;2023-07-30T10:08:51;100458.16;;;20.86;56.30
4834;BME280;12895;51.064;7.028;2023-07-30T10:11:37;100464.38;;;20.92;57.11
4834;BME280;12895;51.064;7.028;2023-07-30T10:14:25;100456.69;;;20.92;56.93
4834;BME280;12895;51.064;7.028;2023-07-30T10:17:13;100465.47;;;21.17;56.48
4834;BME280;12895;51.064;7.028;2023-07-30T10:19:58;100465.88;;;21.21;57.42
4834;BME280;12895;51.064;7.028;2023-07-30T10:23:04;100445.00;;;21.52;55.59
4834;BME280;12895;51.064;7.028;2023-07-30T10:25:49;100453.25;;;21.50;54.19
4834;BME280;12895;51.064;7.028;2023-07-30T10:28:36;100443.50;;;21.51;54.77
4834;BME280;12895;51.064;7.028;2023-07-30T10:31:24;100438.94;;;21.76;53.32
4834;BME280;12895;51.064;7.028;2023-07-30T10:34:25;100441.31;;;21.64;54.03
4834;BME280;12895;51.064;7.028;2023-07-30T10:37:11;100439.13;;;21.78;53.08
4834;BME280;12895;51.064;7.028;2023-07-30T10:40:15;100445.19;;;22.27;49.61
4834;BME280;12895;51.064;7.028;2023-07-30T10:43:01;100437.50;;;22.65;50.86
4834;BME280;12895;51.064;7.028;2023-07-30T10:45:49;100445.75;;;22.33;49.64
4834;BME280;12895;51.064;7.028;2023-07-30T10:48:37;100435.41;;;21.98;48.93
4834;BME280;12895;51.064;7.028;2023-07-30T10:51:23;100445.97;;;21.62;50.17
4834;BME280;12895;51.064;7.028;2023-07-30T10:54:09;100435.38;;;21.32;51.57
4834;BME280;12895;51.064;7.028;2023-07-30T10:56:54;100442.44;;;21.26;52.04
4834;BME280;12895;51.064;7.028;2023-07-30T10:59:39;100446.00;;;21.19;52.20
4834;BME280;12895;51.064;7.028;2023-07-30T11:02:24;100444.28;;;21.16;53.46
4834;BME280;12895;51.064;7.028;2023-07-30T11:05:14;100435.22;;;21.38;52.81
4834;BME280;12895;51.064;7.028;2023-07-30T11:07:59;100437.53;;;21.62;51.83
4834;BME280;12895;51.064;7.028;2023-07-30T11:10:45;100432.41;;;22.26;52.61
4834;BME280;12895;51.064;7.028;2023-07-30T11:13:34;100427.91;;;22.82;51.97
4834;BME280;12895;51.064;7.028;2023-07-30T11:16:19;100433.47;;;22.97;48.47
4834;BME280;12895;51.064;7.028;2023-07-30T11:19:07;100442.22;;;22.55;49.96
4834;BME280;12895;51.064;7.028;2023-07-30T11:21:54;100443.28;;;22.22;50.17
4834;BME280;12895;51.064;7.028;2023-07-30T11:24:40;100434.28;;;22.01;51.24
4834;BME280;12895;51.064;7.028;2023-07-30T11:27:25;100433.13;;;21.89;51.62
4834;BME280;12895;51.064;7.028;2023-07-30T11:30:10;100449.63;;;21.85;51.31
4834;BME280;12895;51.064;7.028;2023-07-30T11:32:55;100449.59;;;21.77;50.08
4834;BME280;12895;51.064;7.028;2023-07-30T11:35:41;100449.63;;;21.85;49.76
4834;BME280;12895;51.064;7.028;2023-07-30T11:38:27;100448.28;;;21.71;50.47
4834;BME280;12895;51.064;7.028;2023-07-30T11:41:14;100453.41;;;22.02;49.48
4834;BME280;12895;51.064;7.028;2023-07-30T11:43:59;100458.69;;;22.21;49.65
4834;BME280;12895;51.064;7.028;2023-07-30T11:46:52;100457.31;;;21.92;49.45
4834;BME280;12895;51.064;7.028;2023-07-30T11:49:38;100469.41;;;21.57;51.17
4834;BME280;12895;51.064;7.028;2023-07-30T11:52:23;100470.44;;;21.31;51.29
4834;BME280;12895;51.064;7.028;2023-07-30T11:55:10;100476.91;;;21.19;51.58
4834;BME280;12895;51.064;7.028;2023-07-30T11:57:55;100477.09;;;21.21;52.28
4834;BME280;12895;51.064;7.028;2023-07-30T12:00:42;100482.88;;;21.51;52.12
4834;BME280;12895;51.064;7.028;2023-07-30T12:03:28;100473.44;;;21.84;51.55
4834;BME280;12895;51.064;7.028;2023-07-30T12:06:13;100486.34;;;21.72;49.95
4834;BME280;12895;51.064;7.028;2023-07-30T12:08:58;100480.44;;;22.13;50.34
4834;BME280;12895;51.064;7.028;2023-07-30T12:11:47;100472.78;;;22.36;48.45
4834;BME280;12895;51.064;7.028;2023-07-30T12:14:42;100485.78;;;22.54;48.48
4834;BME280;12895;51.064;7.028;2023-07-30T12:17:27;100483.47;;;22.30;49.27
4834;BME280;12895;51.064;7.028;2023-07-30T12:20:13;100487.19;;;22.10;49.99
4834;BME280;12895;51.064;7.028;2023-07-30T12:22:58;100508.50;;;21.83;51.24
4834;BME280;12895;51.064;7.028;2023-07-30T12:25:43;100546.19;;;21.09;57.33
4834;BME280;12895;51.064;7.028;2023-07-30T12:28:29;100548.69;;;19.71;61.32
4834;BME280;12895;51.064;7.028;2023-07-30T12:31:15;100552.47;;;18.96;64.59
4834;BME280;12895;51.064;7.028;2023-07-30T12:34:00;100557.78;;;18.36;68.89
4834;BME280;12895;51.064;7.028;2023-07-30T12:36:45;100540.28;;;18.49;67.92
4834;BME280;12895;51.064;7.028;2023-07-30T12:39:30;100541.56;;;18.79;66.45
4834;BME280;12895;51.064;7.028;2023-07-30T12:42:16;100538.47;;;19.09;66.60
4834;BME280;12895;51.064;7.028;2023-07-30T12:45:03;100535.78;;;19.55;65.08
4834;BME280;12895;51.064;7.028;2023-07-30T12:47:49;100534.81;;;19.99;65.95
4834;BME280;12895;51.064;7.028;2023-07-30T12:50:34;100531.53;;;20.21;62.86
4834;BME280;12895;51.064;7.028;2023-07-30T12:53:19;100521.97;;;20.57;64.53
4834;BME280;12895;51.064;7.028;2023-07-30T12:56:05;100546.53;;;20.85;60.03
4834;BME280;12895;51.064;7.028;2023-07-30T12:58:50;100527.31;;;21.17;58.42
4834;BME280;12895;51.064;7.028;2023-07-30T13:01:36;100531.47;;;21.59;57.65
4834;BME280;12895;51.064;7.028;2023-07-30T13:04:23;100518.66;;;21.86;55.20
4834;BME280;12895;51.064;7.028;2023-07-30T13:07:10;100523.19;;;21.96;54.94
4834;BME280;12895;51.064;7.028;2023-07-30T13:10:03;100516.28;;;22.05;55.68
4834;BME280;12895;51.064;7.028;2023-07-30T13:12:48;100533.38;;;22.14;54.41
4834;BME280;12895;51.064;7.028;2023-07-30T13:15:33;100520.78;;;22.08;54.07
4834;BME280;12895;51.064;7.028;2023-07-30T13:18:20;100518.75;;;22.31;54.97
4834;BME280;12895;51.064;7.028;2023-07-30T13:21:05;100512.06;;;22.41;52.85
4834;BME280;12895;51.064;7.028;2023-07-30T13:23:50;100518.75;;;22.16;53.42
4834;BME280;12895;51.064;7.028;2023-07-30T13:26:35;100539.41;;;22.18;53.93
4834;BME280;12895;51.064;7.028;2023-07-30T13:29:20;100519.16;;;22.35;52.65
4834;BME280;12895;51.064;7.028;2023-07-30T13:32:05;100522.94;;;22.45;53.73
4834;BME280;12895;51.064;7.028;2023-07-30T13:34:52;100528.53;;;22.30;53.49
4834;BME280;12895;51.064;7.028;2023-07-30T13:37:37;100523.25;;;22.19;54.40
4834;BME280;12895;51.064;7.028;2023-07-30T13:40:23;100517.66;;;22.34;54.39
4834;BME280;12895;51.064;7.028;2023-07-30T13:43:08;100512.41;;;22.38;52.64
4834;BME280;12895;51.064;7.028;2023-07-30T13:45:53;100519.13;;;22.27;54.47
4834;BME280;12895;51.064;7.028;2023-07-30T13:48:38;100518.06;;;22.53;51.42
4834;BME280;12895;51.064;7.028;2023-07-30T13:51:26;100516.19;;;22.63;49.75
4834;BME280;12895;51.064;7.028;2023-07-30T13:54:15;100518.81;;;22.90;50.97
4834;BME280;12895;51.064;7.028;2023-07-30T13:57:01;100519.94;;;23.02;50.12
4834;BME280;12895;51.064;7.028;2023-07-30T13:59:47;100529.31;;;23.12;48.45
4834;BME280;12895;51.064;7.028;2023-07-30T14:02:32;100518.59;;;23.03;49.44
4834;BME280;12895;51.064;7.028;2023-07-30T14:05:17;100513.50;;;23.32;49.12
4834;BME280;12895;51.064;7.028;2023-07-30T14:08:04;100520.25;;;23.36;49.79
4834;BME280;12895;51.064;7.028;2023-07-30T14:10:49;100513.50;;;23.39;50.43
4834;BME280;12895;51.064;7.028;2023-07-30T14:13:35;100519.50;;;23.36;50.65
4834;BME280;12895;51.064;7.028;2023-07-30T14:16:20;100514.66;;;23.76;51.41
4834;BME280;12895;51.064;7.028;2023-07-30T14:19:05;100506.69;;;24.21;48.84
4834;BME280;12895;51.064;7.028;2023-07-30T14:21:51;100506.22;;;24.64;46.62
4834;BME280;12895;51.064;7.028;2023-07-30T14:24:37;100508.28;;;24.39;47.31
4834;BME280;12895;51.064;7.028;2023-07-30T14:27:24;100500.78;;;25.00;45.88
4834;BME280;12895;51.064;7.028;2023-07-30T14:30:10;100505.59;;;24.90;47.37
4834;BME280;12895;51.064;7.028;2023-07-30T14:32:55;100489.63;;;25.87;42.27
4834;BME280;12895;51.064;7.028;2023-07-30T14:35:41;100491.94;;;27.25;40.53
4834;BME280;12895;51.064;7.028;2023-07-30T14:38:26;100490.66;;;28.04;38.31
4834;BME280;12895;51.064;7.028;2023-07-30T14:41:13;100493.13;;;27.60;38.30